sensor_id;sensor_type;location;lat;lon;timestamp;P1;durP1;ratioP1;P2;durP2;ratioP2
57891;SDS011;43708;48.828;9.166;2023-04-29T00:01:24;1.30;;;0.70;;
57891;SDS011;43708;48.828;9.166;2023-04-29T00:03:50;0.55;;;0.43;;
57891;SDS011;43708;48.828;9.166;2023-04-29T00:06:16;0.60;;;0.52;;
57891;SDS011;43708;48.828;9.166;2023-04-29T00:08:42;2.10;;;0.70;;
57891;SDS011;43708;48.828;9.166;2023-04-29T00:11:07;0.77;;;0.57;;
57891;SDS011;43708;48.828;9.166;2023-04-29T00:13:34;0.50;;;0.50;;
57891;SDS011;43708;48.828;9.166;2023-04-29T00:16:00;1.00;;;0.60;;
57891;SDS011;43708;48.828;9.166;2023-04-29T00:18:26;0.50;;;0.50;;
57891;SDS011;43708;48.828;9.166;2023-04-29T00:20:54;0.60;;;0.40;;
57891;SDS011;43708;48.828;9.166;2023-04-29T00:23:20;0.60;;;0.50;;
57891;SDS011;43708;48.828;9.166;2023-04-29T00:25:45;0.57;;;0.50;;
57891;SDS011;43708;48.828;9.166;2023-04-29T00:28:11;0.70;;;0.50;;
57891;SDS011;43708;48.828;9.166;2023-04-29T00:30:37;0.40;;;0.38;;
57891;SDS011;43708;48.828;9.166;2023-04-29T00:33:02;1.00;;;0.57;;
57891;SDS011;43708;48.828;9.166;2023-04-29T00:35:28;0.70;;;0.60;;
57891;SDS011;43708;48.828;9.166;2023-04-29T00:37:53;0.43;;;0.43;;
57891;SDS011;43708;48.828;9.166;2023-04-29T00:40:19;0.43;;;0.40;;
57891;SDS011;43708;48.828;9.166;2023-04-29T00:42:45;0.50;;;0.50;;
57891;SDS011;43708;48.828;9.166;2023-04-29T00:45:10;0.50;;;0.50;;
57891;SDS011;43708;48.828;9.166;2023-04-29T00:47:36;0.43;;;0.43;;
57891;SDS011;43708;48.828;9.166;2023-04-29T00:50:05;0.52;;;0.40;;
57891;SDS011;43708;48.828;9.166;2023-04-29T00:52:32;0.40;;;0.40;;
57891;SDS011;43708;48.828;9.166;2023-04-29T00:54:58;0.40;;;0.40;;
57891;SDS011;43708;48.828;9.166;2023-04-29T00:57:24;0.40;;;0.40;;
57891;SDS011;43708;48.828;9.166;2023-04-29T00:59:53;1.23;;;0.50;;
57891;SDS011;43708;48.828;9.166;2023-04-29T01:02:23;0.55;;;0.40;;
57891;SDS011;43708;48.828;9.166;2023-04-29T01:04:50;1.70;;;0.50;;
57891;SDS011;43708;48.828;9.166;2023-04-29T01:07:17;0.43;;;0.40;;
57891;SDS011;43708;48.828;9.166;2023-04-29T01:12:53;0.40;;;0.40;;
57891;SDS011;43708;48.828;9.166;2023-04-29T01:15:34;0.60;;;0.30;;
57891;SDS011;43708;48.828;9.166;2023-04-29T01:18:04;0.30;;;0.28;;
57891;SDS011;43708;48.828;9.166;2023-04-29T01:20:39;0.43;;;0.40;;
57891;SDS011;43708;48.828;9.166;2023-04-29T01:23:06;0.30;;;0.30;;
57891;SDS011;43708;48.828;9.166;2023-04-29T01:25:31;0.32;;;0.32;;
57891;SDS011;43708;48.828;9.166;2023-04-29T01:33:31;0.30;;;0.25;;
57891;SDS011;43708;48.828;9.166;2023-04-29T01:39:05;0.82;;;0.40;;
57891;SDS011;43708;48.828;9.166;2023-04-29T01:41:43;0.40;;;0.30;;
57891;SDS011;43708;48.828;9.166;2023-04-29T01:44:17;0.40;;;0.20;;
57891;SDS011;43708;48.828;9.166;2023-04-29T01:46:48;0.43;;;0.40;;
57891;SDS011;43708;48.828;9.166;2023-04-29T01:49:24;0.30;;;0.30;;
57891;SDS011;43708;48.828;9.166;2023-04-29T01:51:50;0.30;;;0.20;;
57891;SDS011;43708;48.828;9.166;2023-04-29T01:54:16;0.30;;;0.30;;
57891;SDS011;43708;48.828;9.166;2023-04-29T01:56:42;0.45;;;0.30;;
57891;SDS011;43708;48.828;9.166;2023-04-29T01:59:08;0.40;;;0.38;;
57891;SDS011;43708;48.828;9.166;2023-04-29T02:01:34;0.30;;;0.17;;
57891;SDS011;43708;48.828;9.166;2023-04-29T02:03:59;0.35;;;0.30;;
57891;SDS011;43708;48.828;9.166;2023-04-29T02:06:25;0.30;;;0.30;;
57891;SDS011;43708;48.828;9.166;2023-04-29T02:08:51;0.40;;;0.32;;
57891;SDS011;43708;48.828;9.166;2023-04-29T02:11:17;0.30;;;0.30;;
57891;SDS011;43708;48.828;9.166;2023-04-29T02:13:43;0.30;;;0.30;;
57891;SDS011;43708;48.828;9.166;2023-04-29T02:16:09;0.30;;;0.30;;
57891;SDS011;43708;48.828;9.166;2023-04-29T02:18:35;0.30;;;0.30;;
57891;SDS011;43708;48.828;9.166;2023-04-29T02:21:01;0.30;;;0.30;;
57891;SDS011;43708;48.828;9.166;2023-04-29T02:23:27;0.32;;;0.30;;
57891;SDS011;43708;48.828;9.166;2023-04-29T02:25:53;0.30;;;0.30;;
57891;SDS011;43708;48.828;9.166;2023-04-29T02:28:22;0.30;;;0.22;;
57891;SDS011;43708;48.828;9.166;2023-04-29T02:30:47;0.30;;;0.20;;
57891;SDS011;43708;48.828;9.166;2023-04-29T02:33:13;0.38;;;0.38;;
57891;SDS011;43708;48.828;9.166;2023-04-29T02:35:40;0.40;;;0.30;;
57891;SDS011;43708;48.828;9.166;2023-04-29T02:38:05;0.40;;;0.25;;
57891;SDS011;43708;48.828;9.166;2023-04-29T02:40:31;0.30;;;0.25;;
57891;SDS011;43708;48.828;9.166;2023-04-29T02:42:57;0.45;;;0.28;;
57891;SDS011;43708;48.828;9.166;2023-04-29T02:45:22;0.32;;;0.32;;
57891;SDS011;43708;48.828;9.166;2023-04-29T02:47:48;0.40;;;0.20;;
57891;SDS011;43708;48.828;9.166;2023-04-29T02:50:13;0.40;;;0.30;;
57891;SDS011;43708;48.828;9.166;2023-04-29T02:52:39;0.30;;;0.22;;
57891;SDS011;43708;48.828;9.166;2023-04-29T02:55:06;0.40;;;0.20;;
57891;SDS011;43708;48.828;9.166;2023-04-29T02:57:32;0.30;;;0.30;;
57891;SDS011;43708;48.828;9.166;2023-04-29T02:59:57;0.40;;;0.30;;
57891;SDS011;43708;48.828;9.166;2023-04-29T03:02:23;0.30;;;0.30;;
57891;SDS011;43708;48.828;9.166;2023-04-29T03:04:49;0.50;;;0.30;;
57891;SDS011;43708;48.828;9.166;2023-04-29T03:07:15;0.50;;;0.40;;
57891;SDS011;43708;48.828;9.166;2023-04-29T03:09:41;0.40;;;0.25;;
57891;SDS011;43708;48.828;9.166;2023-04-29T03:12:07;0.30;;;0.30;;
57891;SDS011;43708;48.828;9.166;2023-04-29T03:14:32;0.30;;;0.25;;
57891;SDS011;43708;48.828;9.166;2023-04-29T03:16:58;0.30;;;0.30;;
57891;SDS011;43708;48.828;9.166;2023-04-29T03:19:23;0.47;;;0.40;;
57891;SDS011;43708;48.828;9.166;2023-04-29T03:21:49;0.30;;;0.20;;
57891;SDS011;43708;48.828;9.166;2023-04-29T03:24:15;0.40;;;0.30;;
57891;SDS011;43708;48.828;9.166;2023-04-29T03:26:40;0.30;;;0.28;;
57891;SDS011;43708;48.828;9.166;2023-04-29T03:29:07;0.30;;;0.28;;
57891;SDS011;43708;48.828;9.166;2023-04-29T03:31:32;0.30;;;0.20;;
57891;SDS011;43708;48.828;9.166;2023-04-29T03:33:58;0.30;;;0.30;;
57891;SDS011;43708;48.828;9.166;2023-04-29T03:36:24;0.50;;;0.22;;
57891;SDS011;43708;48.828;9.166;2023-04-29T03:38:49;0.30;;;0.28;;
57891;SDS011;43708;48.828;9.166;2023-04-29T03:41:15;0.30;;;0.30;;
57891;SDS011;43708;48.828;9.166;2023-04-29T03:43:41;0.40;;;0.30;;
57891;SDS011;43708;48.828;9.166;2023-04-29T03:46:09;0.30;;;0.20;;
57891;SDS011;43708;48.828;9.166;2023-04-29T03:48:35;0.30;;;0.30;;
57891;SDS011;43708;48.828;9.166;2023-04-29T03:51:01;0.30;;;0.30;;
57891;SDS011;43708;48.828;9.166;2023-04-29T03:53:27;0.30;;;0.20;;
57891;SDS011;43708;48.828;9.166;2023-04-29T03:55:53;0.40;;;0.30;;
57891;SDS011;43708;48.828;9.166;2023-04-29T03:58:18;0.40;;;0.30;;
57891;SDS011;43708;48.828;9.166;2023-04-29T04:00:44;0.30;;;0.20;;
57891;SDS011;43708;48.828;9.166;2023-04-29T04:03:10;0.30;;;0.25;;
57891;SDS011;43708;48.828;9.166;2023-04-29T04:05:35;0.35;;;0.30;;
57891;SDS011;43708;48.828;9.166;2023-04-29T04:08:01;0.40;;;0.20;;
57891;SDS011;43708;48.828;9.166;2023-04-29T04:10:26;0.40;;;0.30;;
57891;SDS011;43708;48.828;9.166;2023-04-29T04:12:52;0.30;;;0.30;;
57891;SDS011;43708;48.828;9.166;2023-04-29T04:15:18;0.30;;;0.30;;
57891;SDS011;43708;48.828;9.166;2023-04-29T04:17:43;0.40;;;0.30;;
57891;SDS011;43708;48.828;9.166;2023-04-29T04:20:09;0.30;;;0.22;;
57891;SDS011;43708;48.828;9.166;2023-04-29T04:22:35;0.68;;;0.38;;
57891;SDS011;43708;48.828;9.166;2023-04-29T04:25:02;0.30;;;0.20;;
57891;SDS011;43708;48.828;9.166;2023-04-29T04:27:28;0.30;;;0.20;;
57891;SDS011;43708;48.828;9.166;2023-04-29T04:29:54;0.30;;;0.28;;
57891;SDS011;43708;48.828;9.166;2023-04-29T04:32:22;0.40;;;0.20;;
57891;SDS011;43708;48.828;9.166;2023-04-29T04:34:48;0.30;;;0.28;;
57891;SDS011;43708;48.828;9.166;2023-04-29T04:37:15;0.35;;;0.32;;
57891;SDS011;43708;48.828;9.166;2023-04-29T04:39:41;0.30;;;0.30;;
57891;SDS011;43708;48.828;9.166;2023-04-29T04:42:07;0.40;;;0.40;;
57891;SDS011;43708;48.828;9.166;2023-04-29T04:44:32;0.45;;;0.40;;
57891;SDS011;43708;48.828;9.166;2023-04-29T04:46:58;0.30;;;0.30;;
57891;SDS011;43708;48.828;9.166;2023-04-29T04:49:26;1.05;;;0.40;;
57891;SDS011;43708;48.828;9.166;2023-04-29T04:51:52;0.40;;;0.30;;
57891;SDS011;43708;48.828;9.166;2023-04-29T04:54:18;0.40;;;0.32;;
57891;SDS011;43708;48.828;9.166;2023-04-29T04:56:44;0.40;;;0.40;;
57891;SDS011;43708;48.828;9.166;2023-04-29T04:59:10;0.73;;;0.30;;
57891;SDS011;43708;48.828;9.166;2023-04-29T05:01:35;0.40;;;0.40;;
57891;SDS011;43708;48.828;9.166;2023-04-29T05:04:01;0.30;;;0.20;;
57891;SDS011;43708;48.828;9.166;2023-04-29T05:06:27;0.30;;;0.28;;
57891;SDS011;43708;48.828;9.166;2023-04-29T05:08:53;0.30;;;0.30;;
57891;SDS011;43708;48.828;9.166;2023-04-29T05:11:19;0.30;;;0.30;;
57891;SDS011;43708;48.828;9.166;2023-04-29T05:13:46;0.40;;;0.40;;
57891;SDS011;43708;48.828;9.166;2023-04-29T05:16:12;0.40;;;0.40;;
57891;SDS011;43708;48.828;9.166;2023-04-29T05:18:38;0.35;;;0.35;;
57891;SDS011;43708;48.828;9.166;2023-04-29T05:21:04;0.40;;;0.40;;
57891;SDS011;43708;48.828;9.166;2023-04-29T05:23:30;0.40;;;0.40;;
57891;SDS011;43708;48.828;9.166;2023-04-29T05:25:55;0.40;;;0.30;;
57891;SDS011;43708;48.828;9.166;2023-04-29T05:28:21;0.40;;;0.40;;
57891;SDS011;43708;48.828;9.166;2023-04-29T05:30:49;0.77;;;0.40;;
57891;SDS011;43708;48.828;9.166;2023-04-29T05:33:15;0.55;;;0.52;;
57891;SDS011;43708;48.828;9.166;2023-04-29T05:35:40;0.50;;;0.50;;
57891;SDS011;43708;48.828;9.166;2023-04-29T05:38:06;0.40;;;0.40;;
57891;SDS011;43708;48.828;9.166;2023-04-29T05:40:32;0.50;;;0.50;;
57891;SDS011;43708;48.828;9.166;2023-04-29T05:42:57;1.27;;;0.52;;
57891;SDS011;43708;48.828;9.166;2023-04-29T05:45:23;2.10;;;0.80;;
57891;SDS011;43708;48.828;9.166;2023-04-29T05:47:49;0.70;;;0.40;;
57891;SDS011;43708;48.828;9.166;2023-04-29T05:50:15;0.60;;;0.60;;
57891;SDS011;43708;48.828;9.166;2023-04-29T05:52:41;0.52;;;0.50;;
57891;SDS011;43708;48.828;9.166;2023-04-29T05:55:06;1.27;;;0.80;;
57891;SDS011;43708;48.828;9.166;2023-04-29T05:57:32;0.88;;;0.57;;
57891;SDS011;43708;48.828;9.166;2023-04-29T05:59:58;3.15;;;0.80;;
57891;SDS011;43708;48.828;9.166;2023-04-29T06:02:24;2.65;;;0.80;;
57891;SDS011;43708;48.828;9.166;2023-04-29T06:04:50;0.60;;;0.60;;
57891;SDS011;43708;48.828;9.166;2023-04-29T06:07:16;2.20;;;0.70;;
57891;SDS011;43708;48.828;9.166;2023-04-29T06:09:43;1.80;;;0.70;;
57891;SDS011;43708;48.828;9.166;2023-04-29T06:12:08;1.05;;;0.63;;
57891;SDS011;43708;48.828;9.166;2023-04-29T06:14:34;4.10;;;1.20;;
57891;SDS011;43708;48.828;9.166;2023-04-29T06:17:00;2.50;;;1.00;;
57891;SDS011;43708;48.828;9.166;2023-04-29T06:19:26;2.97;;;1.25;;
57891;SDS011;43708;48.828;9.166;2023-04-29T06:21:51;3.03;;;1.35;;
57891;SDS011;43708;48.828;9.166;2023-04-29T06:24:17;3.05;;;1.27;;
57891;SDS011;43708;48.828;9.166;2023-04-29T06:26:43;1.83;;;1.10;;
57891;SDS011;43708;48.828;9.166;2023-04-29T06:29:08;3.08;;;1.30;;
57891;SDS011;43708;48.828;9.166;2023-04-29T06:31:34;2.25;;;1.10;;
57891;SDS011;43708;48.828;9.166;2023-04-29T06:33:59;3.35;;;1.20;;
57891;SDS011;43708;48.828;9.166;2023-04-29T06:36:25;1.85;;;1.10;;
57891;SDS011;43708;48.828;9.166;2023-04-29T06:38:51;2.28;;;0.98;;
57891;SDS011;43708;48.828;9.166;2023-04-29T06:41:17;2.40;;;0.90;;
57891;SDS011;43708;48.828;9.166;2023-04-29T06:43:42;2.92;;;1.30;;
57891;SDS011;43708;48.828;9.166;2023-04-29T06:46:08;4.32;;;1.00;;
57891;SDS011;43708;48.828;9.166;2023-04-29T06:48:34;4.20;;;1.25;;
57891;SDS011;43708;48.828;9.166;2023-04-29T06:51:00;1.90;;;1.00;;
57891;SDS011;43708;48.828;9.166;2023-04-29T06:53:26;3.53;;;1.10;;
57891;SDS011;43708;48.828;9.166;2023-04-29T06:55:52;3.58;;;1.10;;
57891;SDS011;43708;48.828;9.166;2023-04-29T06:58:18;1.40;;;0.75;;
57891;SDS011;43708;48.828;9.166;2023-04-29T07:00:44;1.98;;;1.20;;
57891;SDS011;43708;48.828;9.166;2023-04-29T07:03:11;2.10;;;1.13;;
57891;SDS011;43708;48.828;9.166;2023-04-29T07:05:36;3.90;;;1.17;;
57891;SDS011;43708;48.828;9.166;2023-04-29T07:08:09;1.50;;;1.00;;
57891;SDS011;43708;48.828;9.166;2023-04-29T07:10:36;1.25;;;0.80;;
57891;SDS011;43708;48.828;9.166;2023-04-29T07:13:01;2.47;;;0.93;;
57891;SDS011;43708;48.828;9.166;2023-04-29T07:15:27;2.85;;;1.08;;
57891;SDS011;43708;48.828;9.166;2023-04-29T07:17:54;1.13;;;0.70;;
57891;SDS011;43708;48.828;9.166;2023-04-29T07:20:20;1.60;;;0.90;;
57891;SDS011;43708;48.828;9.166;2023-04-29T07:22:46;2.63;;;0.77;;
57891;SDS011;43708;48.828;9.166;2023-04-29T07:25:11;1.98;;;0.90;;
57891;SDS011;43708;48.828;9.166;2023-04-29T07:27:38;1.23;;;0.80;;
57891;SDS011;43708;48.828;9.166;2023-04-29T07:30:04;1.02;;;0.82;;
57891;SDS011;43708;48.828;9.166;2023-04-29T07:32:30;1.98;;;0.80;;
57891;SDS011;43708;48.828;9.166;2023-04-29T07:34:56;1.55;;;1.00;;
57891;SDS011;43708;48.828;9.166;2023-04-29T07:37:22;1.65;;;0.80;;
57891;SDS011;43708;48.828;9.166;2023-04-29T07:39:48;1.48;;;0.93;;
57891;SDS011;43708;48.828;9.166;2023-04-29T07:42:14;1.05;;;0.60;;
57891;SDS011;43708;48.828;9.166;2023-04-29T07:44:40;0.85;;;0.60;;
57891;SDS011;43708;48.828;9.166;2023-04-29T07:47:05;0.70;;;0.52;;
57891;SDS011;43708;48.828;9.166;2023-04-29T07:49:31;3.42;;;0.90;;
57891;SDS011;43708;48.828;9.166;2023-04-29T07:51:56;2.58;;;0.93;;
57891;SDS011;43708;48.828;9.166;2023-04-29T07:54:22;1.70;;;1.00;;
57891;SDS011;43708;48.828;9.166;2023-04-29T07:56:48;2.45;;;0.90;;
57891;SDS011;43708;48.828;9.166;2023-04-29T07:59:14;1.58;;;0.77;;
57891;SDS011;43708;48.828;9.166;2023-04-29T08:01:40;1.33;;;0.80;;
57891;SDS011;43708;48.828;9.166;2023-04-29T08:04:06;2.15;;;1.02;;
57891;SDS011;43708;48.828;9.166;2023-04-29T08:06:32;1.35;;;0.80;;
57891;SDS011;43708;48.828;9.166;2023-04-29T08:08:58;1.73;;;1.00;;
57891;SDS011;43708;48.828;9.166;2023-04-29T08:11:24;2.08;;;0.80;;
57891;SDS011;43708;48.828;9.166;2023-04-29T08:13:50;2.33;;;1.05;;
57891;SDS011;43708;48.828;9.166;2023-04-29T08:16:16;2.60;;;1.02;;
57891;SDS011;43708;48.828;9.166;2023-04-29T08:18:42;1.83;;;0.85;;
57891;SDS011;43708;48.828;9.166;2023-04-29T08:21:08;1.35;;;0.77;;
57891;SDS011;43708;48.828;9.166;2023-04-29T08:23:36;1.52;;;0.80;;
57891;SDS011;43708;48.828;9.166;2023-04-29T08:26:02;1.73;;;0.80;;
57891;SDS011;43708;48.828;9.166;2023-04-29T08:28:28;1.17;;;0.80;;
57891;SDS011;43708;48.828;9.166;2023-04-29T08:30:53;1.00;;;0.70;;
57891;SDS011;43708;48.828;9.166;2023-04-29T08:33:19;1.40;;;0.80;;
57891;SDS011;43708;48.828;9.166;2023-04-29T08:35:45;2.58;;;0.80;;
57891;SDS011;43708;48.828;9.166;2023-04-29T08:38:10;1.02;;;0.93;;
57891;SDS011;43708;48.828;9.166;2023-04-29T08:40:43;2.17;;;0.70;;
57891;SDS011;43708;48.828;9.166;2023-04-29T08:43:10;0.68;;;0.65;;
57891;SDS011;43708;48.828;9.166;2023-04-29T08:45:41;1.38;;;0.82;;
57891;SDS011;43708;48.828;9.166;2023-04-29T08:48:07;1.17;;;0.50;;
57891;SDS011;43708;48.828;9.166;2023-04-29T08:50:40;1.95;;;0.80;;
57891;SDS011;43708;48.828;9.166;2023-04-29T08:53:06;0.85;;;0.50;;
57891;SDS011;43708;48.828;9.166;2023-04-29T08:55:39;1.48;;;0.82;;
57891;SDS011;43708;48.828;9.166;2023-04-29T08:58:06;0.73;;;0.60;;
57891;SDS011;43708;48.828;9.166;2023-04-29T09:00:33;0.93;;;0.70;;
57891;SDS011;43708;48.828;9.166;2023-04-29T09:02:59;2.80;;;1.10;;
57891;SDS011;43708;48.828;9.166;2023-04-29T09:05:28;1.38;;;0.90;;
57891;SDS011;43708;48.828;9.166;2023-04-29T09:07:55;1.25;;;0.73;;
57891;SDS011;43708;48.828;9.166;2023-04-29T09:10:23;0.77;;;0.77;;
57891;SDS011;43708;48.828;9.166;2023-04-29T09:12:50;1.23;;;0.68;;
57891;SDS011;43708;48.828;9.166;2023-04-29T09:15:15;1.38;;;0.70;;
57891;SDS011;43708;48.828;9.166;2023-04-29T09:17:47;1.63;;;0.70;;
57891;SDS011;43708;48.828;9.166;2023-04-29T09:22:51;1.70;;;0.80;;
57891;SDS011;43708;48.828;9.166;2023-04-29T09:25:17;1.27;;;0.90;;
57891;SDS011;43708;48.828;9.166;2023-04-29T09:27:43;1.00;;;0.73;;
57891;SDS011;43708;48.828;9.166;2023-04-29T09:30:09;2.05;;;0.80;;
57891;SDS011;43708;48.828;9.166;2023-04-29T09:32:36;0.63;;;0.60;;
57891;SDS011;43708;48.828;9.166;2023-04-29T09:35:20;2.08;;;0.80;;
57891;SDS011;43708;48.828;9.166;2023-04-29T09:37:54;0.85;;;0.70;;
57891;SDS011;43708;48.828;9.166;2023-04-29T09:40:33;3.45;;;1.25;;
57891;SDS011;43708;48.828;9.166;2023-04-29T09:42:59;1.00;;;0.90;;
57891;SDS011;43708;48.828;9.166;2023-04-29T09:45:32;1.65;;;0.98;;
57891;SDS011;43708;48.828;9.166;2023-04-29T09:48:02;1.35;;;0.90;;
57891;SDS011;43708;48.828;9.166;2023-04-29T09:50:30;1.30;;;0.88;;
57891;SDS011;43708;48.828;9.166;2023-04-29T09:52:56;1.30;;;0.70;;
57891;SDS011;43708;48.828;9.166;2023-04-29T09:55:22;0.75;;;0.60;;
57891;SDS011;43708;48.828;9.166;2023-04-29T09:57:48;1.20;;;0.65;;
57891;SDS011;43708;48.828;9.166;2023-04-29T10:00:14;0.70;;;0.55;;
57891;SDS011;43708;48.828;9.166;2023-04-29T10:02:45;1.45;;;0.85;;
57891;SDS011;43708;48.828;9.166;2023-04-29T10:05:11;1.23;;;0.77;;
57891;SDS011;43708;48.828;9.166;2023-04-29T10:07:39;0.88;;;0.63;;
57891;SDS011;43708;48.828;9.166;2023-04-29T10:10:06;0.70;;;0.70;;
57891;SDS011;43708;48.828;9.166;2023-04-29T10:12:34;2.25;;;0.80;;
57891;SDS011;43708;48.828;9.166;2023-04-29T10:17:48;0.88;;;0.70;;
57891;SDS011;43708;48.828;9.166;2023-04-29T10:20:21;0.90;;;0.65;;
57891;SDS011;43708;48.828;9.166;2023-04-29T10:22:51;0.50;;;0.50;;
57891;SDS011;43708;48.828;9.166;2023-04-29T10:25:19;0.73;;;0.50;;
57891;SDS011;43708;48.828;9.166;2023-04-29T10:27:47;0.65;;;0.47;;
57891;SDS011;43708;48.828;9.166;2023-04-29T10:30:16;0.77;;;0.55;;
57891;SDS011;43708;48.828;9.166;2023-04-29T10:32:43;0.77;;;0.70;;
57891;SDS011;43708;48.828;9.166;2023-04-29T10:35:11;1.40;;;0.88;;
57891;SDS011;43708;48.828;9.166;2023-04-29T10:37:39;0.75;;;0.63;;
57891;SDS011;43708;48.828;9.166;2023-04-29T10:42:47;1.27;;;0.70;;
57891;SDS011;43708;48.828;9.166;2023-04-29T10:48:09;0.63;;;0.63;;
57891;SDS011;43708;48.828;9.166;2023-04-29T10:53:12;2.08;;;0.82;;
57891;SDS011;43708;48.828;9.166;2023-04-29T10:55:41;1.67;;;0.70;;
57891;SDS011;43708;48.828;9.166;2023-04-29T11:00:58;0.95;;;0.80;;
57891;SDS011;43708;48.828;9.166;2023-04-29T11:06:22;1.17;;;0.73;;
57891;SDS011;43708;48.828;9.166;2023-04-29T11:09:12;0.82;;;0.70;;
57891;SDS011;43708;48.828;9.166;2023-04-29T11:17:33;0.95;;;0.82;;
57891;SDS011;43708;48.828;9.166;2023-04-29T11:20:04;1.50;;;0.90;;
57891;SDS011;43708;48.828;9.166;2023-04-29T11:22:34;0.95;;;0.82;;
57891;SDS011;43708;48.828;9.166;2023-04-29T11:25:01;1.95;;;1.05;;
57891;SDS011;43708;48.828;9.166;2023-04-29T11:27:35;0.77;;;0.60;;
57891;SDS011;43708;48.828;9.166;2023-04-29T11:30:02;0.93;;;0.80;;
57891;SDS011;43708;48.828;9.166;2023-04-29T11:32:30;1.40;;;0.80;;
57891;SDS011;43708;48.828;9.166;2023-04-29T11:35:08;1.20;;;0.85;;
57891;SDS011;43708;48.828;9.166;2023-04-29T11:37:41;0.70;;;0.70;;
57891;SDS011;43708;48.828;9.166;2023-04-29T11:40:09;0.80;;;0.70;;
57891;SDS011;43708;48.828;9.166;2023-04-29T11:42:48;0.60;;;0.60;;
57891;SDS011;43708;48.828;9.166;2023-04-29T11:45:16;0.50;;;0.50;;
57891;SDS011;43708;48.828;9.166;2023-04-29T11:47:43;1.02;;;0.63;;
57891;SDS011;43708;48.828;9.166;2023-04-29T11:50:10;1.55;;;0.80;;
57891;SDS011;43708;48.828;9.166;2023-04-29T11:52:36;1.05;;;0.90;;
57891;SDS011;43708;48.828;9.166;2023-04-29T11:55:03;1.33;;;0.90;;
57891;SDS011;43708;48.828;9.166;2023-04-29T11:57:29;1.10;;;0.82;;
57891;SDS011;43708;48.828;9.166;2023-04-29T11:59:58;0.82;;;0.82;;
57891;SDS011;43708;48.828;9.166;2023-04-29T12:02:28;0.60;;;0.60;;
57891;SDS011;43708;48.828;9.166;2023-04-29T12:04:57;1.17;;;1.00;;
57891;SDS011;43708;48.828;9.166;2023-04-29T12:07:25;0.60;;;0.60;;
57891;SDS011;43708;48.828;9.166;2023-04-29T12:09:51;0.73;;;0.73;;
57891;SDS011;43708;48.828;9.166;2023-04-29T12:12:16;0.85;;;0.80;;
57891;SDS011;43708;48.828;9.166;2023-04-29T12:14:42;1.38;;;0.82;;
57891;SDS011;43708;48.828;9.166;2023-04-29T12:17:08;1.10;;;1.00;;
57891;SDS011;43708;48.828;9.166;2023-04-29T12:19:34;1.92;;;1.00;;
57891;SDS011;43708;48.828;9.166;2023-04-29T12:22:02;0.60;;;0.60;;
57891;SDS011;43708;48.828;9.166;2023-04-29T12:24:31;1.17;;;0.90;;
57891;SDS011;43708;48.828;9.166;2023-04-29T12:26:59;0.82;;;0.82;;
57891;SDS011;43708;48.828;9.166;2023-04-29T12:29:27;0.98;;;0.90;;
57891;SDS011;43708;48.828;9.166;2023-04-29T12:31:54;0.82;;;0.75;;
57891;SDS011;43708;48.828;9.166;2023-04-29T12:34:29;0.90;;;0.90;;
57891;SDS011;43708;48.828;9.166;2023-04-29T12:36:57;1.00;;;0.90;;
57891;SDS011;43708;48.828;9.166;2023-04-29T12:39:24;1.13;;;0.82;;
57891;SDS011;43708;48.828;9.166;2023-04-29T12:41:56;1.00;;;0.90;;
57891;SDS011;43708;48.828;9.166;2023-04-29T12:44:23;2.13;;;1.25;;
57891;SDS011;43708;48.828;9.166;2023-04-29T12:46:49;0.73;;;0.73;;
57891;SDS011;43708;48.828;9.166;2023-04-29T12:49:17;0.80;;;0.80;;
57891;SDS011;43708;48.828;9.166;2023-04-29T12:51:43;1.17;;;0.90;;
57891;SDS011;43708;48.828;9.166;2023-04-29T12:54:09;0.90;;;0.90;;
57891;SDS011;43708;48.828;9.166;2023-04-29T12:56:36;0.85;;;0.80;;
57891;SDS011;43708;48.828;9.166;2023-04-29T12:59:06;1.40;;;1.00;;
57891;SDS011;43708;48.828;9.166;2023-04-29T13:01:32;1.10;;;1.00;;
57891;SDS011;43708;48.828;9.166;2023-04-29T13:03:58;1.30;;;1.20;;
57891;SDS011;43708;48.828;9.166;2023-04-29T13:06:24;1.90;;;1.23;;
57891;SDS011;43708;48.828;9.166;2023-04-29T13:08:49;1.00;;;0.90;;
57891;SDS011;43708;48.828;9.166;2023-04-29T13:11:15;1.00;;;1.00;;
57891;SDS011;43708;48.828;9.166;2023-04-29T13:13:41;1.20;;;1.10;;
57891;SDS011;43708;48.828;9.166;2023-04-29T13:16:07;0.80;;;0.80;;
57891;SDS011;43708;48.828;9.166;2023-04-29T13:18:33;1.15;;;1.05;;
57891;SDS011;43708;48.828;9.166;2023-04-29T13:21:00;1.00;;;0.90;;
57891;SDS011;43708;48.828;9.166;2023-04-29T13:23:25;1.00;;;1.00;;
57891;SDS011;43708;48.828;9.166;2023-04-29T13:25:51;1.00;;;0.90;;
57891;SDS011;43708;48.828;9.166;2023-04-29T13:28:17;0.70;;;0.70;;
57891;SDS011;43708;48.828;9.166;2023-04-29T13:30:42;2.47;;;1.10;;
57891;SDS011;43708;48.828;9.166;2023-04-29T13:33:08;1.42;;;0.90;;
57891;SDS011;43708;48.828;9.166;2023-04-29T13:35:34;1.10;;;1.00;;
57891;SDS011;43708;48.828;9.166;2023-04-29T13:38:00;1.27;;;1.13;;
57891;SDS011;43708;48.828;9.166;2023-04-29T13:40:26;1.00;;;0.98;;
57891;SDS011;43708;48.828;9.166;2023-04-29T13:42:52;1.10;;;1.00;;
57891;SDS011;43708;48.828;9.166;2023-04-29T13:45:17;1.02;;;0.90;;
57891;SDS011;43708;48.828;9.166;2023-04-29T13:47:43;1.20;;;1.10;;
57891;SDS011;43708;48.828;9.166;2023-04-29T13:50:09;1.30;;;1.20;;
57891;SDS011;43708;48.828;9.166;2023-04-29T13:52:35;1.25;;;0.93;;
57891;SDS011;43708;48.828;9.166;2023-04-29T13:55:00;1.13;;;1.02;;
57891;SDS011;43708;48.828;9.166;2023-04-29T13:57:28;1.30;;;1.20;;
57891;SDS011;43708;48.828;9.166;2023-04-29T13:59:54;1.25;;;1.10;;
57891;SDS011;43708;48.828;9.166;2023-04-29T14:02:20;0.88;;;0.88;;
57891;SDS011;43708;48.828;9.166;2023-04-29T14:04:45;1.30;;;1.20;;
57891;SDS011;43708;48.828;9.166;2023-04-29T14:07:12;2.25;;;1.10;;
57891;SDS011;43708;48.828;9.166;2023-04-29T14:09:37;1.33;;;1.20;;
57891;SDS011;43708;48.828;9.166;2023-04-29T14:12:04;1.13;;;1.02;;
57891;SDS011;43708;48.828;9.166;2023-04-29T14:14:30;1.20;;;1.10;;
57891;SDS011;43708;48.828;9.166;2023-04-29T14:16:55;1.40;;;1.30;;
57891;SDS011;43708;48.828;9.166;2023-04-29T14:19:21;1.10;;;1.00;;
57891;SDS011;43708;48.828;9.166;2023-04-29T14:21:47;1.20;;;1.10;;
57891;SDS011;43708;48.828;9.166;2023-04-29T14:24:12;1.10;;;1.00;;
57891;SDS011;43708;48.828;9.166;2023-04-29T14:26:38;1.42;;;1.20;;
57891;SDS011;43708;48.828;9.166;2023-04-29T14:29:04;1.20;;;1.10;;
57891;SDS011;43708;48.828;9.166;2023-04-29T14:31:30;1.40;;;1.30;;
57891;SDS011;43708;48.828;9.166;2023-04-29T14:34:02;1.10;;;1.00;;
57891;SDS011;43708;48.828;9.166;2023-04-29T14:36:28;1.95;;;1.08;;
57891;SDS011;43708;48.828;9.166;2023-04-29T14:38:53;1.20;;;1.10;;
57891;SDS011;43708;48.828;9.166;2023-04-29T14:41:19;1.15;;;1.05;;
57891;SDS011;43708;48.828;9.166;2023-04-29T14:43:47;1.40;;;1.30;;
57891;SDS011;43708;48.828;9.166;2023-04-29T14:46:13;1.40;;;1.30;;
57891;SDS011;43708;48.828;9.166;2023-04-29T14:48:39;1.00;;;1.00;;
57891;SDS011;43708;48.828;9.166;2023-04-29T14:51:04;2.28;;;0.80;;
57891;SDS011;43708;48.828;9.166;2023-04-29T14:53:30;1.13;;;1.02;;
57891;SDS011;43708;48.828;9.166;2023-04-29T14:55:56;1.23;;;1.13;;
57891;SDS011;43708;48.828;9.166;2023-04-29T14:58:21;1.27;;;1.17;;
57891;SDS011;43708;48.828;9.166;2023-04-29T15:00:47;1.27;;;1.17;;
57891;SDS011;43708;48.828;9.166;2023-04-29T15:03:14;1.20;;;1.10;;
57891;SDS011;43708;48.828;9.166;2023-04-29T15:05:41;1.30;;;1.20;;
57891;SDS011;43708;48.828;9.166;2023-04-29T15:08:06;1.08;;;0.98;;
57891;SDS011;43708;48.828;9.166;2023-04-29T15:10:32;1.10;;;1.05;;
57891;SDS011;43708;48.828;9.166;2023-04-29T15:12:58;2.28;;;1.10;;
57891;SDS011;43708;48.828;9.166;2023-04-29T15:15:25;1.20;;;1.10;;
57891;SDS011;43708;48.828;9.166;2023-04-29T15:17:50;1.02;;;1.00;;
57891;SDS011;43708;48.828;9.166;2023-04-29T15:20:16;1.20;;;1.10;;
57891;SDS011;43708;48.828;9.166;2023-04-29T15:22:41;0.85;;;0.82;;